sensor_id;sensor_type;location;lat;lon;timestamp;P1;durP1;ratioP1;P2;durP2;ratioP2
13981;SDS011;7065;50.880;5.502;2023-06-22T00:00:57;4.35;;;3.47;;
13981;SDS011;7065;50.880;5.502;2023-06-22T00:03:23;3.97;;;3.58;;
13981;SDS011;7065;50.880;5.502;2023-06-22T00:05:51;3.65;;;3.28;;
13981;SDS011;7065;50.880;5.502;2023-06-22T00:08:17;4.68;;;3.53;;
13981;SDS011;7065;50.880;5.502;2023-06-22T00:10:44;3.40;;;2.92;;
13981;SDS011;7065;50.880;5.502;2023-06-22T00:13:10;3.33;;;2.85;;
13981;SDS011;7065;50.880;5.502;2023-06-22T00:15:37;3.65;;;3.35;;
13981;SDS011;7065;50.880;5.502;2023-06-22T00:18:03;3.33;;;3.03;;
13981;SDS011;7065;50.880;5.502;2023-06-22T00:20:31;4.50;;;3.08;;
13981;SDS011;7065;50.880;5.502;2023-06-22T00:22:57;3.40;;;3.10;;
13981;SDS011;7065;50.880;5.502;2023-06-22T00:25:23;3.92;;;3.15;;
13981;SDS011;7065;50.880;5.502;2023-06-22T00:27:49;3.60;;;3.15;;
13981;SDS011;7065;50.880;5.502;2023-06-22T00:30:16;3.53;;;3.22;;
13981;SDS011;7065;50.880;5.502;2023-06-22T00:32:42;3.55;;;3.00;;
13981;SDS011;7065;50.880;5.502;2023-06-22T00:35:09;3.72;;;2.92;;
13981;SDS011;7065;50.880;5.502;2023-06-22T00:37:35;3.42;;;2.85;;
13981;SDS011;7065;50.880;5.502;2023-06-22T00:40:03;2.72;;;2.53;;
13981;SDS011;7065;50.880;5.502;2023-06-22T00:42:30;3.63;;;2.78;;
13981;SDS011;7065;50.880;5.502;2023-06-22T00:44:56;3.35;;;2.97;;
13981;SDS011;7065;50.880;5.502;2023-06-22T00:47:22;3.40;;;3.10;;
13981;SDS011;7065;50.880;5.502;2023-06-22T00:49:48;3.38;;;2.35;;
13981;SDS011;7065;50.880;5.502;2023-06-22T00:52:18;2.75;;;2.55;;
13981;SDS011;7065;50.880;5.502;2023-06-22T00:54:50;3.00;;;2.47;;
13981;SDS011;7065;50.880;5.502;2023-06-22T00:57:17;3.83;;;3.03;;
13981;SDS011;7065;50.880;5.502;2023-06-22T00:59:44;4.03;;;2.70;;
13981;SDS011;7065;50.880;5.502;2023-06-22T01:02:10;3.05;;;2.85;;
13981;SDS011;7065;50.880;5.502;2023-06-22T01:04:37;3.75;;;2.90;;
13981;SDS011;7065;50.880;5.502;2023-06-22T01:09:37;4.28;;;3.25;;
13981;SDS011;7065;50.880;5.502;2023-06-22T01:12:11;3.53;;;3.22;;
13981;SDS011;7065;50.880;5.502;2023-06-22T01:17:03;2.88;;;2.67;;
13981;SDS011;7065;50.880;5.502;2023-06-22T01:22:10;2.95;;;2.75;;
13981;SDS011;7065;50.880;5.502;2023-06-22T01:28:01;3.72;;;3.13;;
13981;SDS011;7065;50.880;5.502;2023-06-22T01:30:32;3.55;;;2.60;;
13981;SDS011;7065;50.880;5.502;2023-06-22T01:33:04;5.93;;;3.40;;
13981;SDS011;7065;50.880;5.502;2023-06-22T01:35:32;3.83;;;2.78;;
13981;SDS011;7065;50.880;5.502;2023-06-22T01:37:58;3.72;;;3.33;;
13981;SDS011;7065;50.880;5.502;2023-06-22T01:40:24;3.33;;;3.03;;
13981;SDS011;7065;50.880;5.502;2023-06-22T01:42:51;3.20;;;2.90;;
13981;SDS011;7065;50.880;5.502;2023-06-22T01:45:17;2.88;;;2.58;;
13981;SDS011;7065;50.880;5.502;2023-06-22T01:47:44;3.25;;;2.95;;
13981;SDS011;7065;50.880;5.502;2023-06-22T01:50:10;3.67;;;3.15;;
13981;SDS011;7065;50.880;5.502;2023-06-22T01:52:37;4.60;;;3.80;;
13981;SDS011;7065;50.880;5.502;2023-06-22T01:55:03;4.15;;;3.50;;
13981;SDS011;7065;50.880;5.502;2023-06-22T01:57:29;4.47;;;4.07;;
13981;SDS011;7065;50.880;5.502;2023-06-22T02:00:18;4.30;;;3.80;;
13981;SDS011;7065;50.880;5.502;2023-06-22T02:05:19;6.57;;;4.65;;
13981;SDS011;7065;50.880;5.502;2023-06-22T02:07:56;6.68;;;4.80;;
13981;SDS011;7065;50.880;5.502;2023-06-22T02:10:24;6.05;;;4.97;;
13981;SDS011;7065;50.880;5.502;2023-06-22T02:12:53;7.13;;;5.82;;
13981;SDS011;7065;50.880;5.502;2023-06-22T02:15:20;9.07;;;6.50;;
13981;SDS011;7065;50.880;5.502;2023-06-22T02:17:46;8.00;;;5.75;;
13981;SDS011;7065;50.880;5.502;2023-06-22T02:20:13;7.03;;;5.72;;
13981;SDS011;7065;50.880;5.502;2023-06-22T02:22:39;5.90;;;5.30;;
13981;SDS011;7065;50.880;5.502;2023-06-22T02:25:05;6.65;;;6.03;;
13981;SDS011;7065;50.880;5.502;2023-06-22T02:27:32;7.70;;;6.90;;
13981;SDS011;7065;50.880;5.502;2023-06-22T02:29:57;6.68;;;6.07;;
13981;SDS011;7065;50.880;5.502;2023-06-22T02:32:24;8.15;;;7.35;;
13981;SDS011;7065;50.880;5.502;2023-06-22T02:34:49;7.47;;;6.82;;
13981;SDS011;7065;50.880;5.502;2023-06-22T02:37:16;9.63;;;8.18;;
13981;SDS011;7065;50.880;5.502;2023-06-22T02:39:42;9.18;;;8.30;;
13981;SDS011;7065;50.880;5.502;2023-06-22T02:42:08;10.40;;;9.05;;
13981;SDS011;7065;50.880;5.502;2023-06-22T02:44:35;8.82;;;7.93;;
13981;SDS011;7065;50.880;5.502;2023-06-22T02:47:01;10.25;;;9.25;;
13981;SDS011;7065;50.880;5.502;2023-06-22T02:49:27;12.20;;;10.05;;
13981;SDS011;7065;50.880;5.502;2023-06-22T02:51:53;12.02;;;10.25;;
13981;SDS011;7065;50.880;5.502;2023-06-22T02:54:20;12.82;;;11.52;;
13981;SDS011;7065;50.880;5.502;2023-06-22T02:56:46;12.27;;;11.00;;
13981;SDS011;7065;50.880;5.502;2023-06-22T02:59:13;14.52;;;11.60;;
13981;SDS011;7065;50.880;5.502;2023-06-22T03:01:38;12.60;;;11.45;;
13981;SDS011;7065;50.880;5.502;2023-06-22T03:04:07;11.20;;;9.70;;
13981;SDS011;7065;50.880;5.502;2023-06-22T03:06:34;12.70;;;11.40;;
13981;SDS011;7065;50.880;5.502;2023-06-22T03:09:02;14.38;;;12.98;;
13981;SDS011;7065;50.880;5.502;2023-06-22T03:11:33;12.88;;;11.68;;
13981;SDS011;7065;50.880;5.502;2023-06-22T03:13:59;13.43;;;12.05;;
13981;SDS011;7065;50.880;5.502;2023-06-22T03:16:26;14.25;;;11.90;;
13981;SDS011;7065;50.880;5.502;2023-06-22T03:18:52;14.73;;;12.80;;
13981;SDS011;7065;50.880;5.502;2023-06-22T03:21:18;13.15;;;11.85;;
13981;SDS011;7065;50.880;5.502;2023-06-22T03:23:45;14.00;;;12.02;;
13981;SDS011;7065;50.880;5.502;2023-06-22T03:26:11;13.48;;;12.18;;
13981;SDS011;7065;50.880;5.502;2023-06-22T03:28:38;16.25;;;12.85;;
13981;SDS011;7065;50.880;5.502;2023-06-22T03:31:04;14.35;;;12.52;;
13981;SDS011;7065;50.880;5.502;2023-06-22T03:33:31;13.73;;;12.27;;
13981;SDS011;7065;50.880;5.502;2023-06-22T03:35:57;13.57;;;12.07;;
13981;SDS011;7065;50.880;5.502;2023-06-22T03:38:23;15.52;;;13.93;;
13981;SDS011;7065;50.880;5.502;2023-06-22T03:40:48;15.57;;;13.30;;
13981;SDS011;7065;50.880;5.502;2023-06-22T03:43:14;13.50;;;12.07;;
13981;SDS011;7065;50.880;5.502;2023-06-22T03:45:40;15.25;;;13.20;;
13981;SDS011;7065;50.880;5.502;2023-06-22T03:48:05;14.65;;;13.15;;
13981;SDS011;7065;50.880;5.502;2023-06-22T03:50:32;12.43;;;11.27;;
13981;SDS011;7065;50.880;5.502;2023-06-22T03:52:57;13.70;;;12.45;;
13981;SDS011;7065;50.880;5.502;2023-06-22T03:55:23;16.48;;;13.35;;
13981;SDS011;7065;50.880;5.502;2023-06-22T03:57:49;15.02;;;13.43;;
13981;SDS011;7065;50.880;5.502;2023-06-22T04:00:14;15.13;;;13.68;;
13981;SDS011;7065;50.880;5.502;2023-06-22T04:02:41;18.17;;;14.65;;
13981;SDS011;7065;50.880;5.502;2023-06-22T04:05:08;14.88;;;13.50;;
13981;SDS011;7065;50.880;5.502;2023-06-22T04:07:34;16.58;;;15.00;;
13981;SDS011;7065;50.880;5.502;2023-06-22T04:10:02;19.40;;;15.38;;
13981;SDS011;7065;50.880;5.502;2023-06-22T04:12:29;18.42;;;16.73;;
13981;SDS011;7065;50.880;5.502;2023-06-22T04:14:54;19.17;;;17.13;;
13981;SDS011;7065;50.880;5.502;2023-06-22T04:17:20;22.15;;;19.88;;
13981;SDS011;7065;50.880;5.502;2023-06-22T04:19:46;21.67;;;19.30;;
13981;SDS011;7065;50.880;5.502;2023-06-22T04:22:11;22.80;;;20.48;;
13981;SDS011;7065;50.880;5.502;2023-06-22T04:24:37;28.17;;;25.17;;
13981;SDS011;7065;50.880;5.502;2023-06-22T04:27:03;28.63;;;25.38;;
13981;SDS011;7065;50.880;5.502;2023-06-22T04:29:30;27.58;;;24.60;;
13981;SDS011;7065;50.880;5.502;2023-06-22T04:31:56;31.80;;;28.42;;
13981;SDS011;7065;50.880;5.502;2023-06-22T04:34:28;34.72;;;29.63;;
13981;SDS011;7065;50.880;5.502;2023-06-22T04:36:54;33.35;;;29.35;;
13981;SDS011;7065;50.880;5.502;2023-06-22T04:39:20;32.88;;;29.33;;
13981;SDS011;7065;50.880;5.502;2023-06-22T04:41:46;34.00;;;29.42;;
13981;SDS011;7065;50.880;5.502;2023-06-22T04:46:58;27.35;;;24.52;;
13981;SDS011;7065;50.880;5.502;2023-06-22T04:49:27;29.42;;;26.35;;
13981;SDS011;7065;50.880;5.502;2023-06-22T04:52:04;32.33;;;28.83;;
13981;SDS011;7065;50.880;5.502;2023-06-22T04:54:31;33.15;;;29.25;;
13981;SDS011;7065;50.880;5.502;2023-06-22T04:57:01;34.40;;;27.77;;
13981;SDS011;7065;50.880;5.502;2023-06-22T04:59:28;30.73;;;27.48;;
13981;SDS011;7065;50.880;5.502;2023-06-22T05:01:55;30.17;;;27.05;;
13981;SDS011;7065;50.880;5.502;2023-06-22T05:04:22;33.40;;;28.33;;
13981;SDS011;7065;50.880;5.502;2023-06-22T05:06:48;33.10;;;29.73;;
13981;SDS011;7065;50.880;5.502;2023-06-22T05:09:15;36.72;;;33.00;;
13981;SDS011;7065;50.880;5.502;2023-06-22T05:11:41;36.10;;;32.13;;
13981;SDS011;7065;50.880;5.502;2023-06-22T05:14:07;38.55;;;34.38;;
13981;SDS011;7065;50.880;5.502;2023-06-22T05:16:33;37.15;;;33.17;;
13981;SDS011;7065;50.880;5.502;2023-06-22T05:18:59;37.20;;;32.95;;
13981;SDS011;7065;50.880;5.502;2023-06-22T05:21:27;36.00;;;32.20;;
13981;SDS011;7065;50.880;5.502;2023-06-22T05:23:54;40.40;;;36.17;;
13981;SDS011;7065;50.880;5.502;2023-06-22T05:26:21;40.15;;;35.85;;
13981;SDS011;7065;50.880;5.502;2023-06-22T05:28:47;46.47;;;38.65;;
13981;SDS011;7065;50.880;5.502;2023-06-22T05:31:14;39.78;;;35.50;;
13981;SDS011;7065;50.880;5.502;2023-06-22T05:33:40;38.85;;;34.92;;
13981;SDS011;7065;50.880;5.502;2023-06-22T05:36:06;42.10;;;37.50;;
13981;SDS011;7065;50.880;5.502;2023-06-22T05:38:32;48.30;;;40.80;;
13981;SDS011;7065;50.880;5.502;2023-06-22T05:40:58;44.90;;;40.20;;
13981;SDS011;7065;50.880;5.502;2023-06-22T05:43:24;39.97;;;35.67;;
13981;SDS011;7065;50.880;5.502;2023-06-22T05:45:49;36.97;;;33.17;;
13981;SDS011;7065;50.880;5.502;2023-06-22T05:48:15;36.47;;;32.75;;
13981;SDS011;7065;50.880;5.502;2023-06-22T05:50:41;43.13;;;38.45;;
13981;SDS011;7065;50.880;5.502;2023-06-22T05:53:07;39.20;;;34.78;;
13981;SDS011;7065;50.880;5.502;2023-06-22T05:55:33;42.20;;;37.75;;
13981;SDS011;7065;50.880;5.502;2023-06-22T05:57:59;41.78;;;37.35;;
13981;SDS011;7065;50.880;5.502;2023-06-22T06:00:24;37.35;;;33.42;;
13981;SDS011;7065;50.880;5.502;2023-06-22T06:02:51;39.58;;;35.50;;
13981;SDS011;7065;50.880;5.502;2023-06-22T06:05:16;39.10;;;35.03;;
13981;SDS011;7065;50.880;5.502;2023-06-22T06:07:44;37.80;;;33.72;;
13981;SDS011;7065;50.880;5.502;2023-06-22T06:10:10;41.35;;;36.95;;
13981;SDS011;7065;50.880;5.502;2023-06-22T06:12:36;41.55;;;36.75;;
13981;SDS011;7065;50.880;5.502;2023-06-22T06:15:02;41.83;;;36.70;;
13981;SDS011;7065;50.880;5.502;2023-06-22T06:17:28;42.67;;;38.10;;
13981;SDS011;7065;50.880;5.502;2023-06-22T06:19:54;39.63;;;35.47;;
13981;SDS011;7065;50.880;5.502;2023-06-22T06:22:20;43.47;;;39.05;;
13981;SDS011;7065;50.880;5.502;2023-06-22T06:24:47;45.25;;;40.33;;
13981;SDS011;7065;50.880;5.502;2023-06-22T06:27:13;47.33;;;42.13;;
13981;SDS011;7065;50.880;5.502;2023-06-22T06:29:39;47.92;;;40.83;;
13981;SDS011;7065;50.880;5.502;2023-06-22T06:32:05;40.83;;;36.63;;
13981;SDS011;7065;50.880;5.502;2023-06-22T06:34:31;43.47;;;38.85;;
13981;SDS011;7065;50.880;5.502;2023-06-22T06:36:57;41.90;;;37.63;;
13981;SDS011;7065;50.880;5.502;2023-06-22T06:39:22;38.47;;;34.47;;
13981;SDS011;7065;50.880;5.502;2023-06-22T06:41:48;40.38;;;36.08;;
13981;SDS011;7065;50.880;5.502;2023-06-22T06:44:14;42.22;;;37.83;;
13981;SDS011;7065;50.880;5.502;2023-06-22T06:46:40;41.83;;;37.80;;
13981;SDS011;7065;50.880;5.502;2023-06-22T06:49:07;39.80;;;35.83;;
13981;SDS011;7065;50.880;5.502;2023-06-22T06:51:32;38.00;;;34.20;;
13981;SDS011;7065;50.880;5.502;2023-06-22T06:53:58;37.00;;;33.08;;
13981;SDS011;7065;50.880;5.502;2023-06-22T06:56:24;36.20;;;32.72;;
13981;SDS011;7065;50.880;5.502;2023-06-22T06:58:50;40.83;;;36.60;;
13981;SDS011;7065;50.880;5.502;2023-06-22T07:01:16;36.70;;;32.97;;
13981;SDS011;7065;50.880;5.502;2023-06-22T07:03:41;35.75;;;32.10;;
13981;SDS011;7065;50.880;5.502;2023-06-22T07:06:08;32.83;;;29.52;;
13981;SDS011;7065;50.880;5.502;2023-06-22T07:08:34;31.08;;;28.02;;
13981;SDS011;7065;50.880;5.502;2023-06-22T07:11:02;31.02;;;28.10;;
13981;SDS011;7065;50.880;5.502;2023-06-22T07:13:27;32.05;;;28.85;;
13981;SDS011;7065;50.880;5.502;2023-06-22T07:15:54;29.17;;;26.23;;
13981;SDS011;7065;50.880;5.502;2023-06-22T07:18:19;28.90;;;26.35;;
13981;SDS011;7065;50.880;5.502;2023-06-22T07:20:45;26.08;;;23.75;;
13981;SDS011;7065;50.880;5.502;2023-06-22T07:23:12;27.38;;;24.60;;
13981;SDS011;7065;50.880;5.502;2023-06-22T07:25:38;23.88;;;21.67;;
13981;SDS011;7065;50.880;5.502;2023-06-22T07:28:04;23.25;;;21.05;;
13981;SDS011;7065;50.880;5.502;2023-06-22T07:30:31;24.92;;;22.52;;
13981;SDS011;7065;50.880;5.502;2023-06-22T07:32:58;24.08;;;21.58;;
13981;SDS011;7065;50.880;5.502;2023-06-22T07:35:28;23.83;;;21.63;;
13981;SDS011;7065;50.880;5.502;2023-06-22T07:37:57;25.90;;;23.40;;
13981;SDS011;7065;50.880;5.502;2023-06-22T07:40:23;23.15;;;20.70;;
13981;SDS011;7065;50.880;5.502;2023-06-22T07:42:49;22.35;;;20.17;;
13981;SDS011;7065;50.880;5.502;2023-06-22T07:45:16;24.17;;;21.73;;
13981;SDS011;7065;50.880;5.502;2023-06-22T07:47:42;22.33;;;20.10;;
13981;SDS011;7065;50.880;5.502;2023-06-22T07:50:09;22.95;;;20.77;;
13981;SDS011;7065;50.880;5.502;2023-06-22T07:52:35;24.33;;;21.92;;
13981;SDS011;7065;50.880;5.502;2023-06-22T07:55:01;22.40;;;20.50;;
13981;SDS011;7065;50.880;5.502;2023-06-22T07:57:27;23.67;;;21.48;;
13981;SDS011;7065;50.880;5.502;2023-06-22T07:59:59;21.85;;;19.58;;
13981;SDS011;7065;50.880;5.502;2023-06-22T08:02:26;22.50;;;20.40;;
13981;SDS011;7065;50.880;5.502;2023-06-22T08:04:53;24.13;;;21.60;;
13981;SDS011;7065;50.880;5.502;2023-06-22T08:07:18;21.23;;;19.27;;
13981;SDS011;7065;50.880;5.502;2023-06-22T08:09:48;23.25;;;21.05;;
13981;SDS011;7065;50.880;5.502;2023-06-22T08:12:14;23.13;;;20.90;;
13981;SDS011;7065;50.880;5.502;2023-06-22T08:14:41;24.33;;;21.80;;
13981;SDS011;7065;50.880;5.502;2023-06-22T08:17:08;21.77;;;19.85;;
13981;SDS011;7065;50.880;5.502;2023-06-22T08:19:34;23.23;;;20.90;;
13981;SDS011;7065;50.880;5.502;2023-06-22T08:22:00;22.38;;;20.33;;
13981;SDS011;7065;50.880;5.502;2023-06-22T08:24:26;21.60;;;19.58;;
13981;SDS011;7065;50.880;5.502;2023-06-22T08:26:55;23.40;;;21.13;;
13981;SDS011;7065;50.880;5.502;2023-06-22T08:29:21;21.98;;;19.90;;
13981;SDS011;7065;50.880;5.502;2023-06-22T08:31:47;21.58;;;19.35;;
13981;SDS011;7065;50.880;5.502;2023-06-22T08:34:12;20.98;;;18.90;;
13981;SDS011;7065;50.880;5.502;2023-06-22T08:36:38;23.40;;;21.30;;
13981;SDS011;7065;50.880;5.502;2023-06-22T08:39:09;22.35;;;20.30;;
13981;SDS011;7065;50.880;5.502;2023-06-22T08:41:35;24.45;;;22.27;;
13981;SDS011;7065;50.880;5.502;2023-06-22T08:44:01;22.92;;;20.98;;
13981;SDS011;7065;50.880;5.502;2023-06-22T08:46:29;23.75;;;21.48;;
13981;SDS011;7065;50.880;5.502;2023-06-22T08:48:58;21.58;;;19.70;;
13981;SDS011;7065;50.880;5.502;2023-06-22T08:51:24;22.65;;;20.65;;
13981;SDS011;7065;50.880;5.502;2023-06-22T08:53:50;22.77;;;20.73;;
13981;SDS011;7065;50.880;5.502;2023-06-22T08:56:16;25.05;;;22.48;;
13981;SDS011;7065;50.880;5.502;2023-06-22T08:58:42;26.33;;;23.98;;
13981;SDS011;7065;50.880;5.502;2023-06-22T09:01:08;24.92;;;22.73;;
13981;SDS011;7065;50.880;5.502;2023-06-22T09:03:34;25.42;;;23.02;;
13981;SDS011;7065;50.880;5.502;2023-06-22T09:06:01;20.83;;;18.92;;
13981;SDS011;7065;50.880;5.502;2023-06-22T09:08:27;25.67;;;23.30;;
13981;SDS011;7065;50.880;5.502;2023-06-22T09:10:53;24.38;;;22.20;;
13981;SDS011;7065;50.880;5.502;2023-06-22T09:13:19;25.08;;;22.73;;
13981;SDS011;7065;50.880;5.502;2023-06-22T09:15:44;24.90;;;22.60;;
13981;SDS011;7065;50.880;5.502;2023-06-22T09:18:10;26.98;;;24.65;;
13981;SDS011;7065;50.880;5.502;2023-06-22T09:20:36;26.67;;;24.33;;
13981;SDS011;7065;50.880;5.502;2023-06-22T09:23:03;23.13;;;20.90;;
13981;SDS011;7065;50.880;5.502;2023-06-22T09:25:29;27.52;;;24.83;;
13981;SDS011;7065;50.880;5.502;2023-06-22T09:27:54;25.33;;;23.00;;
13981;SDS011;7065;50.880;5.502;2023-06-22T09:30:20;26.20;;;23.90;;
13981;SDS011;7065;50.880;5.502;2023-06-22T09:32:46;24.42;;;22.13;;
13981;SDS011;7065;50.880;5.502;2023-06-22T09:35:12;27.45;;;24.95;;
13981;SDS011;7065;50.880;5.502;2023-06-22T09:37:38;25.30;;;22.77;;
13981;SDS011;7065;50.880;5.502;2023-06-22T09:40:05;22.23;;;20.33;;
13981;SDS011;7065;50.880;5.502;2023-06-22T09:42:34;18.30;;;16.60;;
13981;SDS011;7065;50.880;5.502;2023-06-22T09:45:00;22.05;;;20.00;;
13981;SDS011;7065;50.880;5.502;2023-06-22T09:47:26;22.63;;;20.67;;
13981;SDS011;7065;50.880;5.502;2023-06-22T09:49:53;24.75;;;22.50;;
13981;SDS011;7065;50.880;5.502;2023-06-22T09:52:21;20.83;;;18.90;;
13981;SDS011;7065;50.880;5.502;2023-06-22T09:54:47;24.08;;;22.08;;
13981;SDS011;7065;50.880;5.502;2023-06-22T09:57:13;24.95;;;22.55;;
13981;SDS011;7065;50.880;5.502;2023-06-22T09:59:39;24.02;;;21.83;;
13981;SDS011;7065;50.880;5.502;2023-06-22T10:02:07;24.45;;;22.13;;
13981;SDS011;7065;50.880;5.502;2023-06-22T10:04:34;23.90;;;21.63;;
13981;SDS011;7065;50.880;5.502;2023-06-22T10:07:00;28.45;;;25.95;;
13981;SDS011;7065;50.880;5.502;2023-06-22T10:09:26;27.80;;;25.20;;
13981;SDS011;7065;50.880;5.502;2023-06-22T10:11:52;29.10;;;26.42;;
13981;SDS011;7065;50.880;5.502;2023-06-22T10:14:18;28.50;;;25.98;;
13981;SDS011;7065;50.880;5.502;2023-06-22T10:16:44;31.45;;;28.63;;
13981;SDS011;7065;50.880;5.502;2023-06-22T10:19:10;29.08;;;26.48;;
13981;SDS011;7065;50.880;5.502;2023-06-22T10:21:35;28.40;;;26.00;;
13981;SDS011;7065;50.880;5.502;2023-06-22T10:24:01;31.50;;;28.60;;
13981;SDS011;7065;50.880;5.502;2023-06-22T10:26:34;30.08;;;27.45;;
13981;SDS011;7065;50.880;5.502;2023-06-22T10:29:01;31.30;;;28.33;;
13981;SDS011;7065;50.880;5.502;2023-06-22T10:31:28;38.88;;;35.28;;
13981;SDS011;7065;50.880;5.502;2023-06-22T10:33:54;42.92;;;38.78;;
13981;SDS011;7065;50.880;5.502;2023-06-22T10:36:20;42.58;;;38.60;;
13981;SDS011;7065;50.880;5.502;2023-06-22T10:38:47;42.17;;;38.28;;
13981;SDS011;7065;50.880;5.502;2023-06-22T10:41:13;49.20;;;44.42;;
13981;SDS011;7065;50.880;5.502;2023-06-22T10:43:39;51.45;;;46.38;;
13981;SDS011;7065;50.880;5.502;2023-06-22T10:46:04;51.30;;;46.38;;
13981;SDS011;7065;50.880;5.502;2023-06-22T10:48:32;52.72;;;47.42;;
13981;SDS011;7065;50.880;5.502;2023-06-22T10:50:58;54.72;;;49.42;;
13981;SDS011;7065;50.880;5.502;2023-06-22T10:53:24;57.65;;;51.92;;
13981;SDS011;7065;50.880;5.502;2023-06-22T10:55:49;59.10;;;52.88;;
13981;SDS011;7065;50.880;5.502;2023-06-22T10:58:17;57.13;;;51.50;;
13981;SDS011;7065;50.880;5.502;2023-06-22T11:00:44;53.83;;;48.35;;
13981;SDS011;7065;50.880;5.502;2023-06-22T11:03:09;52.67;;;47.63;;
13981;SDS011;7065;50.880;5.502;2023-06-22T11:05:35;52.10;;;46.83;;
13981;SDS011;7065;50.880;5.502;2023-06-22T11:08:01;49.35;;;44.50;;
13981;SDS011;7065;50.880;5.502;2023-06-22T11:10:27;50.25;;;45.40;;
13981;SDS011;7065;50.880;5.502;2023-06-22T11:12:53;49.55;;;44.97;;
13981;SDS011;7065;50.880;5.502;2023-06-22T11:15:20;50.35;;;45.72;;
13981;SDS011;7065;50.880;5.502;2023-06-22T11:17:46;49.97;;;45.00;;
13981;SDS011;7065;50.880;5.502;2023-06-22T11:20:11;48.63;;;43.92;;
13981;SDS011;7065;50.880;5.502;2023-06-22T11:22:38;48.13;;;43.42;;
13981;SDS011;7065;50.880;5.502;2023-06-22T11:25:05;46.05;;;41.72;;
13981;SDS011;7065;50.880;5.502;2023-06-22T11:27:31;43.83;;;39.88;;
13981;SDS011;7065;50.880;5.502;2023-06-22T11:29:57;42.83;;;38.75;;
13981;SDS011;7065;50.880;5.502;2023-06-22T11:32:23;42.60;;;38.60;;
13981;SDS011;7065;50.880;5.502;2023-06-22T11:34:48;41.85;;;37.95;;
13981;SDS011;7065;50.880;5.502;2023-06-22T11:37:14;40.47;;;36.42;;
13981;SDS011;7065;50.880;5.502;2023-06-22T11:39:40;41.80;;;37.75;;
13981;SDS011;7065;50.880;5.502;2023-06-22T11:42:07;40.53;;;36.83;;
13981;SDS011;7065;50.880;5.502;2023-06-22T11:44:33;39.83;;;36.05;;
13981;SDS011;7065;50.880;5.502;2023-06-22T11:46:58;41.55;;;37.58;;
13981;SDS011;7065;50.880;5.502;2023-06-22T11:49:26;41.80;;;37.78;;
13981;SDS011;7065;50.880;5.502;2023-06-22T11:51:52;42.75;;;38.42;;
13981;SDS011;7065;50.880;5.502;2023-06-22T11:54:18;41.38;;;37.47;;
13981;SDS011;7065;50.880;5.502;2023-06-22T11:56:44;40.50;;;36.67;;
13981;SDS011;7065;50.880;5.502;2023-06-22T11:59:09;44.75;;;40.50;;
13981;SDS011;7065;50.880;5.502;2023-06-22T12:01:35;45.95;;;41.70;;
13981;SDS011;7065;50.880;5.502;2023-06-22T12:04:01;44.78;;;40.55;;
13981;SDS011;7065;50.880;5.502;2023-06-22T12:06:30;44.97;;;40.88;;
13981;SDS011;7065;50.880;5.502;2023-06-22T12:08:57;46.38;;;42.00;;
13981;SDS011;7065;50.880;5.502;2023-06-22T12:11:23;47.25;;;42.80;;
13981;SDS011;7065;50.880;5.502;2023-06-22T12:13:48;44.80;;;40.67;;
13981;SDS011;7065;50.880;5.502;2023-06-22T12:16:14;47.38;;;42.70;;
13981;SDS011;7065;50.880;5.502;2023-06-22T12:18:40;46.97;;;42.75;;
13981;SDS011;7065;50.880;5.502;2023-06-22T12:21:07;46.88;;;42.45;;
13981;SDS011;7065;50.880;5.502;2023-06-22T12:23:32;48.63;;;44.10;;
13981;SDS011;7065;50.880;5.502;2023-06-22T12:25:58;45.95;;;41.35;;
13981;SDS011;7065;50.880;5.502;2023-06-22T12:28:25;44.55;;;40.40;;
13981;SDS011;7065;50.880;5.502;2023-06-22T12:30:51;50.80;;;45.83;;
13981;SDS011;7065;50.880;5.502;2023-06-22T12:33:16;49.53;;;44.72;;
13981;SDS011;7065;50.880;5.502;2023-06-22T12:35:43;48.92;;;44.30;;
13981;SDS011;7065;50.880;5.502;2023-06-22T12:38:10;47.25;;;42.63;;
13981;SDS011;7065;50.880;5.502;2023-06-22T12:40:36;49.85;;;45.10;;
13981;SDS011;7065;50.880;5.502;2023-06-22T12:43:01;49.78;;;44.97;;
13981;SDS011;7065;50.880;5.502;2023-06-22T12:45:27;50.55;;;45.83;;
13981;SDS011;7065;50.880;5.502;2023-06-22T12:47:56;52.03;;;47.00;;
13981;SDS011;7065;50.880;5.502;2023-06-22T12:50:22;49.97;;;44.85;;
13981;SDS011;7065;50.880;5.502;2023-06-22T12:52:48;52.60;;;47.60;;
13981;SDS011;7065;50.880;5.502;2023-06-22T12:55:14;52.28;;;47.08;;
13981;SDS011;7065;50.880;5.502;2023-06-22T12:57:39;51.33;;;46.42;;
13981;SDS011;7065;50.880;5.502;2023-06-22T13:00:06;50.20;;;45.30;;
13981;SDS011;7065;50.880;5.502;2023-06-22T13:02:35;50.10;;;45.13;;
13981;SDS011;7065;50.880;5.502;2023-06-22T13:05:01;53.50;;;47.97;;
13981;SDS011;7065;50.880;5.502;2023-06-22T13:07:27;52.42;;;47.50;;
13981;SDS011;7065;50.880;5.502;2023-06-22T13:09:53;52.72;;;47.70;;
13981;SDS011;7065;50.880;5.502;2023-06-22T13:12:19;52.92;;;47.70;;
13981;SDS011;7065;50.880;5.502;2023-06-22T13:14:45;54.85;;;49.65;;
13981;SDS011;7065;50.880;5.502;2023-06-22T13:17:12;56.53;;;50.80;;
13981;SDS011;7065;50.880;5.502;2023-06-22T13:19:39;57.85;;;52.15;;
13981;SDS011;7065;50.880;5.502;2023-06-22T13:22:05;54.88;;;49.42;;
13981;SDS011;7065;50.880;5.502;2023-06-22T13:24:32;53.58;;;48.38;;
13981;SDS011;7065;50.880;5.502;2023-06-22T13:26:57;54.83;;;49.55;;
13981;SDS011;7065;50.880;5.502;2023-06-22T13:29:23;52.53;;;47.28;;
13981;SDS011;7065;50.880;5.502;2023-06-22T13:31:49;52.90;;;47.67;;
13981;SDS011;7065;50.880;5.502;2023-06-22T13:34:15;52.10;;;47.10;;
13981;SDS011;7065;50.880;5.502;2023-06-22T13:36:40;49.80;;;44.45;;
13981;SDS011;7065;50.880;5.502;2023-06-22T13:39:06;47.70;;;43.10;;
13981;SDS011;7065;50.880;5.502;2023-06-22T13:41:32;43.55;;;39.20;;
13981;SDS011;7065;50.880;5.502;2023-06-22T13:43:59;41.80;;;37.70;;
13981;SDS011;7065;50.880;5.502;2023-06-22T13:46:24;44.20;;;39.72;;
13981;SDS011;7065;50.880;5.502;2023-06-22T13:48:50;42.38;;;38.28;;
13981;SDS011;7065;50.880;5.502;2023-06-22T13:51:16;40.85;;;36.95;;
13981;SDS011;7065;50.880;5.502;2023-06-22T13:53:42;42.40;;;38.25;;
13981;SDS011;7065;50.880;5.502;2023-06-22T13:56:07;41.83;;;37.60;;
13981;SDS011;7065;50.880;5.502;2023-06-22T13:58:33;42.25;;;37.95;;
13981;SDS011;7065;50.880;5.502;2023-06-22T14:00:59;43.13;;;38.67;;
13981;SDS011;7065;50.880;5.502;2023-06-22T14:03:24;45.85;;;41.13;;
13981;SDS011;7065;50.880;5.502;2023-06-22T14:05:50;44.47;;;39.80;;
13981;SDS011;7065;50.880;5.502;2023-06-22T14:08:19;46.20;;;41.47;;
13981;SDS011;7065;50.880;5.502;2023-06-22T14:10:46;48.15;;;42.85;;
13981;SDS011;7065;50.880;5.502;2023-06-22T14:13:11;45.97;;;41.35;;
13981;SDS011;7065;50.880;5.502;2023-06-22T14:15:37;48.03;;;42.92;;
13981;SDS011;7065;50.880;5.502;2023-06-22T14:18:02;47.92;;;42.92;;
13981;SDS011;7065;50.880;5.502;2023-06-22T14:20:28;50.08;;;43.53;;
13981;SDS011;7065;50.880;5.502;2023-06-22T14:22:54;49.70;;;44.53;;
13981;SDS011;7065;50.880;5.502;2023-06-22T14:25:20;50.45;;;44.47;;
13981;SDS011;7065;50.880;5.502;2023-06-22T14:27:45;50.47;;;45.08;;
13981;SDS011;7065;50.880;5.502;2023-06-22T14:30:11;51.20;;;45.80;;
13981;SDS011;7065;50.880;5.502;2023-06-22T14:32:37;52.40;;;46.90;;
13981;SDS011;7065;50.880;5.502;2023-06-22T14:35:03;55.25;;;49.15;;
13981;SDS011;7065;50.880;5.502;2023-06-22T14:37:29;53.58;;;47.72;;
13981;SDS011;7065;50.880;5.502;2023-06-22T14:39:55;57.15;;;51.00;;
13981;SDS011;7065;50.880;5.502;2023-06-22T14:42:20;60.90;;;52.65;;
13981;SDS011;7065;50.880;5.502;2023-06-22T14:44:47;61.30;;;54.70;;
13981;SDS011;7065;50.880;5.502;2023-06-22T14:47:13;60.85;;;54.17;;
13981;SDS011;7065;50.880;5.502;2023-06-22T14:49:39;59.65;;;53.47;;